createdAt,value
2018-06-04T00:00:24.883Z,14.77
2018-06-04T00:02:54.687Z,13.97
2018-06-04T00:05:26.843Z,15.60
2018-06-04T00:07:56.354Z,14.53
2018-06-04T00:10:26.879Z,14.90
2018-06-04T00:12:58.611Z,15.47
2018-06-04T00:15:28.883Z,16.50
2018-06-04T00:17:58.847Z,14.90
2018-06-04T00:20:29.033Z,16.83
2018-06-04T00:22:59.462Z,15.13
2018-06-04T00:25:29.491Z,17.53
2018-06-04T00:28:00.362Z,16.33
2018-06-04T00:30:29.939Z,15.83
2018-06-04T00:33:00.687Z,16.83
2018-06-04T00:35:30.800Z,17.07
2018-06-04T00:38:01.767Z,18.40
2018-06-04T00:40:32.587Z,16.93
2018-06-04T00:43:02.503Z,15.17
2018-06-04T00:45:32.294Z,17.00
2018-06-04T00:48:02.631Z,16.50
2018-06-04T00:50:32.325Z,16.33
2018-06-04T00:53:02.208Z,16.50
2018-06-04T00:56:40.195Z,16.73
2018-06-04T00:59:10.612Z,16.13
2018-06-04T01:01:41.274Z,15.47
2018-06-04T01:04:12.711Z,17.03
2018-06-04T01:06:42.719Z,14.97
2018-06-04T01:09:13.915Z,16.90
2018-06-04T01:11:44.758Z,16.03
2018-06-04T01:14:14.768Z,18.53
2018-06-04T01:16:45.315Z,17.13
2018-06-04T01:19:16.433Z,16.73
2018-06-04T01:21:46.763Z,18.37
2018-06-04T01:24:16.527Z,17.57
2018-06-04T01:26:46.682Z,16.13
2018-06-04T01:29:18.079Z,16.83
2018-06-04T01:31:48.874Z,18.60
2018-06-04T01:34:19.399Z,16.60
2018-06-04T01:36:49.215Z,18.43
2018-06-04T01:39:20.047Z,16.80
2018-06-04T01:41:49.585Z,17.90
2018-06-04T01:44:19.585Z,17.70
2018-06-04T01:46:49.887Z,18.43
2018-06-04T01:49:19.759Z,17.97
2018-06-04T01:51:50.155Z,17.83
2018-06-04T01:54:21.731Z,18.23
2018-06-04T01:56:51.252Z,18.30
2018-06-04T01:59:20.965Z,18.87
2018-06-04T02:01:51.595Z,18.27
2018-06-04T02:04:22.062Z,19.00
2018-06-04T02:06:53.110Z,18.00
2018-06-04T02:09:23.150Z,19.60
2018-06-04T02:11:54.967Z,18.17
2018-06-04T02:14:25.205Z,20.03
2018-06-04T02:16:55.499Z,20.80
2018-06-04T02:19:25.572Z,20.57
2018-06-04T02:21:55.766Z,21.33
2018-06-04T02:24:26.373Z,19.47
2018-06-04T02:26:56.756Z,19.27
2018-06-04T02:29:26.149Z,19.50
2018-06-04T02:31:56.031Z,21.30
2018-06-04T02:34:27.147Z,20.60
2018-06-04T02:36:57.598Z,20.53
2018-06-04T02:39:27.447Z,20.20
2018-06-04T02:41:58.688Z,20.83
2018-06-04T02:44:30.794Z,21.27
2018-06-04T02:47:02.007Z,21.27
2018-06-04T02:49:31.568Z,21.27
2018-06-04T02:52:02.919Z,20.20
2018-06-04T02:54:33.767Z,22.37
2018-06-04T02:57:03.283Z,22.40
2018-06-04T02:59:32.898Z,21.50
2018-06-04T03:02:03.499Z,19.73
2018-06-04T03:04:34.088Z,20.30
2018-06-04T03:07:04.428Z,18.67
2018-06-04T03:09:34.589Z,18.73
2018-06-04T03:12:03.835Z,21.23
2018-06-04T03:14:34.809Z,19.70
2018-06-04T03:17:04.567Z,22.17
2018-06-04T03:19:34.407Z,21.07
2018-06-04T03:22:04.773Z,20.57
2018-06-04T03:24:34.629Z,20.53
2018-06-04T03:27:04.631Z,20.40
2018-06-04T03:29:34.529Z,20.00
2018-06-04T03:32:04.621Z,20.13
2018-06-04T03:34:35.099Z,22.53
2018-06-04T03:37:04.667Z,21.40
2018-06-04T03:39:35.139Z,23.37
2018-06-04T03:42:04.946Z,24.00
2018-06-04T03:44:35.572Z,25.50
2018-06-04T03:47:05.351Z,22.67
2018-06-04T03:49:36.939Z,23.43
2018-06-04T03:52:06.815Z,22.37
2018-06-04T03:54:36.950Z,23.60
2018-06-04T03:57:06.847Z,20.50
2018-06-04T03:59:36.434Z,24.27
2018-06-04T04:02:06.394Z,24.03
2018-06-04T04:04:37.572Z,21.90
2018-06-04T04:07:07.435Z,20.33
2018-06-04T04:09:38.167Z,23.50
2018-06-04T04:12:08.802Z,24.47
2018-06-04T04:14:39.519Z,23.07
2018-06-04T04:17:10.418Z,25.13
2018-06-04T04:19:40.927Z,23.60
2018-06-04T04:22:10.268Z,22.87
2018-06-04T04:24:39.798Z,25.20
2018-06-04T04:27:09.334Z,25.43
2018-06-04T04:29:38.835Z,25.97
2018-06-04T04:32:08.408Z,25.80
2018-06-04T04:34:38.239Z,24.70
2018-06-04T04:37:08.884Z,27.47
2018-06-04T04:39:38.855Z,28.23
2018-06-04T04:42:08.357Z,29.00
2018-06-04T04:44:38.345Z,28.10
2018-06-04T04:47:08.541Z,24.57
2018-06-04T04:49:39.479Z,28.77
2018-06-04T04:52:09.919Z,28.23
2018-06-04T04:54:40.010Z,27.20
2018-06-04T04:57:10.167Z,27.07
2018-06-04T04:59:40.136Z,26.07
2018-06-04T05:02:09.574Z,28.50
2018-06-04T05:04:39.383Z,27.37
2018-06-04T05:07:10.283Z,25.83
2018-06-04T05:09:41.621Z,27.13
2018-06-04T05:12:12.215Z,26.03
2018-06-04T05:14:42.322Z,26.23
2018-06-04T05:17:14.018Z,27.60
2018-06-04T05:19:44.758Z,28.97
2018-06-04T05:22:15.087Z,24.63
2018-06-04T05:24:46.394Z,27.33
2018-06-04T05:27:16.530Z,28.43
2018-06-04T05:29:47.288Z,27.20
2018-06-04T05:32:18.483Z,26.80
2018-06-04T05:34:48.882Z,28.80
2018-06-04T05:37:18.510Z,29.43
2018-06-04T05:39:49.564Z,28.43
2018-06-04T05:42:19.460Z,28.30
2018-06-04T05:44:50.277Z,25.33
2018-06-04T05:47:20.576Z,27.97
2018-06-04T05:49:51.548Z,27.30
2018-06-04T05:52:21.190Z,30.27
2018-06-04T05:54:51.065Z,26.33
2018-06-04T05:57:21.420Z,27.90
2018-06-04T05:59:51.199Z,28.97
2018-06-04T06:02:21.799Z,27.97
2018-06-04T06:04:52.031Z,29.67
2018-06-04T06:07:22.019Z,30.63
2018-06-04T06:09:52.635Z,28.40
2018-06-04T06:12:21.815Z,30.33
2018-06-04T06:14:52.179Z,27.33
2018-06-04T06:17:22.880Z,25.00
2018-06-04T06:19:53.757Z,29.93
2018-06-04T06:22:24.368Z,29.00
2018-06-04T06:24:54.953Z,29.43
2018-06-04T06:27:25.547Z,29.23
2018-06-04T06:29:56.120Z,28.63
2018-06-04T06:32:26.130Z,29.37
2018-06-04T06:34:55.679Z,25.90
2018-06-04T06:37:25.099Z,28.37
2018-06-04T06:39:55.014Z,25.27
2018-06-04T06:42:24.619Z,28.83
2018-06-04T06:44:54.941Z,27.33
2018-06-04T06:47:25.067Z,26.07
2018-06-04T06:49:56.610Z,28.53
2018-06-04T06:52:26.433Z,26.90
2018-06-04T06:54:56.822Z,26.60
2018-06-04T06:57:27.135Z,25.50
2018-06-04T06:59:56.799Z,27.50
2018-06-04T07:02:27.023Z,25.37
2018-06-04T07:04:56.342Z,26.87
2018-06-04T07:07:27.841Z,25.30
2018-06-04T07:09:58.278Z,26.27
2018-06-04T07:12:29.196Z,24.20
2018-06-04T07:14:59.783Z,24.67
2018-06-04T07:17:30.114Z,23.93
2018-06-04T07:20:00.254Z,26.07
2018-06-04T07:22:30.954Z,23.77
2018-06-04T07:25:01.268Z,21.20
2018-06-04T07:27:30.767Z,26.57
2018-06-04T07:30:00.398Z,23.70
2018-06-04T07:32:30.309Z,24.20
2018-06-04T07:35:01.927Z,24.73
2018-06-04T07:37:31.853Z,22.83
2018-06-04T07:40:02.402Z,23.40
2018-06-04T07:42:33.146Z,22.87
2018-06-04T07:45:03.454Z,23.90
2018-06-04T07:47:34.397Z,20.80
2018-06-04T07:50:06.035Z,23.93
2018-06-04T07:52:36.794Z,19.47
2018-06-04T07:55:06.490Z,20.17
2018-06-04T07:57:37.022Z,20.20
2018-06-04T08:00:07.644Z,24.20
2018-06-04T08:02:37.789Z,23.67
2018-06-04T08:05:08.175Z,25.60
2018-06-04T08:07:38.393Z,24.37
2018-06-04T08:10:08.963Z,23.47
2018-06-04T08:12:38.826Z,20.17
2018-06-04T08:15:08.947Z,22.47
2018-06-04T08:35:42.467Z,19.23
2018-06-04T08:38:18.010Z,18.30
2018-06-04T08:40:53.389Z,14.57
2018-06-04T08:43:29.311Z,14.47
2018-06-04T08:46:05.898Z,14.47
2018-06-04T08:48:42.380Z,15.07
2018-06-04T08:51:18.067Z,15.23
2018-06-04T08:53:54.360Z,17.30
2018-06-04T08:56:29.248Z,15.63
2018-06-04T08:59:04.351Z,16.53
2018-06-04T09:01:40.155Z,18.90
2018-06-04T09:04:16.321Z,16.90
2018-06-04T09:06:52.134Z,16.50
2018-06-04T09:09:27.597Z,15.83
2018-06-04T09:12:02.902Z,15.70
2018-06-04T09:14:38.436Z,15.50
2018-06-04T09:17:13.514Z,15.50
2018-06-04T09:19:50.849Z,17.40
2018-06-04T09:22:25.510Z,12.90
2018-06-04T09:25:02.235Z,12.07
2018-06-04T09:27:38.404Z,12.23
2018-06-04T09:30:14.258Z,12.30
2018-06-04T09:32:49.123Z,11.10
2018-06-04T09:35:24.527Z,12.13
2018-06-04T09:37:59.886Z,12.70
2018-06-04T09:40:34.863Z,14.87
2018-06-04T09:43:10.543Z,13.37
2018-06-04T09:45:46.051Z,15.47
2018-06-04T09:48:22.559Z,14.77
2018-06-04T09:50:58.703Z,14.73
2018-06-04T09:53:33.842Z,13.70
2018-06-04T09:56:10.219Z,15.83
2018-06-04T09:58:45.578Z,14.07
2018-06-04T10:01:21.195Z,19.00
2018-06-04T10:03:57.486Z,19.73
2018-06-04T10:06:32.672Z,19.30
2018-06-04T10:09:09.099Z,18.03
2018-06-04T10:11:44.995Z,21.00
2018-06-04T10:14:20.184Z,19.03
2018-06-04T10:16:54.867Z,17.53
2018-06-04T10:19:30.398Z,13.77
2018-06-04T10:22:06.923Z,13.33
2018-06-04T10:24:42.843Z,15.67
2018-06-04T10:27:18.774Z,14.30
2018-06-04T10:29:54.094Z,16.07
2018-06-04T10:32:28.590Z,16.83
2018-06-04T10:35:05.245Z,14.37
2018-06-04T10:37:41.119Z,15.53
2018-06-04T10:40:16.465Z,16.83
2018-06-04T10:42:52.291Z,15.47
2018-06-04T10:45:28.838Z,15.67
2018-06-04T10:48:04.416Z,20.17
2018-06-04T10:50:40.427Z,19.07
2018-06-04T10:53:15.826Z,18.47
2018-06-04T10:55:50.293Z,18.90
2018-06-04T10:58:24.910Z,16.50
2018-06-04T11:00:59.794Z,15.00
2018-06-04T11:03:34.925Z,17.13
2018-06-04T11:06:10.032Z,15.60
2018-06-04T11:08:45.230Z,12.40
2018-06-04T11:11:21.435Z,13.53
2018-06-04T11:13:57.322Z,13.77
2018-06-04T11:16:31.895Z,13.37
2018-06-04T11:19:07.960Z,12.20
2018-06-04T11:21:43.386Z,10.83
2018-06-04T11:24:18.935Z,10.33
2018-06-04T11:26:54.991Z,10.10
2018-06-04T11:29:31.091Z,11.93
2018-06-04T11:32:06.590Z,11.50
2018-06-04T11:34:42.218Z,10.50
2018-06-04T11:37:17.465Z,10.60
2018-06-04T11:39:53.619Z,10.23
2018-06-04T11:42:30.053Z,10.10
2018-06-04T11:45:05.771Z,14.83
2018-06-04T11:47:40.595Z,15.70
2018-06-04T11:50:16.443Z,15.67
2018-06-04T11:52:52.139Z,16.37
2018-06-04T11:55:27.490Z,15.10
2018-06-04T11:58:02.184Z,17.30
2018-06-04T12:00:37.086Z,14.27
2018-06-04T12:03:12.808Z,15.60
2018-06-04T12:05:48.033Z,16.70
2018-06-04T12:08:23.332Z,20.93
2018-06-04T12:10:58.306Z,18.57
2018-06-04T12:13:33.494Z,17.17
2018-06-04T12:16:09.067Z,18.13
2018-06-04T12:18:45.206Z,19.00
2018-06-04T12:21:21.671Z,19.03
2018-06-04T12:23:56.994Z,19.57
2018-06-04T12:26:32.490Z,16.93
2018-06-04T12:29:07.773Z,16.17
2018-06-04T12:31:43.151Z,17.93
2018-06-04T12:34:18.445Z,18.30
2018-06-04T12:36:53.919Z,20.40
2018-06-04T12:39:29.095Z,16.83
2018-06-04T12:42:04.295Z,15.70
2018-06-04T12:44:40.143Z,16.43
2018-06-04T12:47:15.847Z,19.07
2018-06-04T12:49:52.166Z,16.40
2018-06-04T12:52:28.230Z,15.83
2018-06-04T12:55:04.640Z,15.67
2018-06-04T12:57:40.164Z,19.17
2018-06-04T13:00:14.713Z,21.57
2018-06-04T13:02:49.934Z,17.97
2018-06-04T13:05:25.918Z,20.67
2018-06-04T13:08:01.738Z,20.43
2018-06-04T13:10:37.431Z,22.23
2018-06-04T13:13:12.922Z,22.47
2018-06-04T13:15:52.795Z,19.13
2018-06-04T13:18:28.064Z,19.43
2018-06-04T13:21:03.287Z,21.60
2018-06-04T13:23:38.479Z,17.20
2018-06-04T13:26:13.394Z,21.63
2018-06-04T13:28:48.035Z,23.57
2018-06-04T13:31:22.809Z,21.93
2018-06-04T13:33:58.146Z,20.53
2018-06-04T13:36:32.654Z,19.20
2018-06-04T13:39:09.230Z,19.03
2018-06-04T13:41:45.286Z,18.50
2018-06-04T13:44:20.298Z,19.87
2018-06-04T13:46:55.330Z,19.57
2018-06-04T13:49:30.214Z,23.27
2018-06-04T13:52:05.430Z,16.50
2018-06-04T13:54:40.526Z,19.60
2018-06-04T13:57:15.522Z,20.33
2018-06-04T13:59:51.082Z,17.70
2018-06-04T14:02:27.422Z,18.50
2018-06-04T14:05:03.774Z,19.70
2018-06-04T14:07:39.123Z,18.63
2018-06-04T14:10:13.919Z,18.00
2018-06-04T14:12:49.239Z,20.47
2018-06-04T14:15:24.494Z,15.97
2018-06-04T14:18:00.112Z,17.10
2018-06-04T14:20:35.466Z,17.13
2018-06-04T14:23:10.210Z,15.73
2018-06-04T14:25:45.338Z,17.30
2018-06-04T14:28:21.414Z,16.63
2018-06-04T14:30:56.138Z,16.60
2018-06-04T14:33:32.294Z,15.83
2018-06-04T14:36:08.866Z,16.17
2018-06-04T14:38:44.546Z,15.53
2018-06-04T14:41:20.474Z,17.67
2018-06-04T14:43:56.330Z,17.17
2018-06-04T14:46:31.372Z,16.40
2018-06-04T14:49:06.746Z,16.87
2018-06-04T14:51:42.143Z,16.60
2018-06-04T14:54:18.106Z,15.97
2018-06-04T14:56:54.114Z,17.87
2018-06-04T14:59:29.467Z,16.77
2018-06-04T15:02:05.662Z,18.53
2018-06-04T15:04:41.006Z,15.90
2018-06-04T15:07:17.248Z,15.33
2018-06-04T15:09:52.314Z,14.73
2018-06-04T15:12:26.878Z,18.20
2018-06-04T15:15:01.684Z,13.33
2018-06-04T15:17:37.925Z,15.03
2018-06-04T15:20:13.979Z,16.70
2018-06-04T15:22:48.346Z,15.43
2018-06-04T15:25:24.276Z,15.57
2018-06-04T15:27:59.409Z,14.07
2018-06-04T15:30:35.809Z,14.53
2018-06-04T15:33:11.522Z,13.40
2018-06-04T15:35:47.258Z,14.30
2018-06-04T15:38:23.746Z,13.77
2018-06-04T15:40:59.358Z,12.77
2018-06-04T15:43:35.555Z,13.70
2018-06-04T15:46:10.065Z,14.67
2018-06-04T15:48:45.150Z,14.37
2018-06-04T15:51:20.360Z,13.60
2018-06-04T15:53:56.207Z,13.33
2018-06-04T15:56:31.563Z,13.17
2018-06-04T15:59:06.282Z,14.27
2018-06-04T16:01:41.306Z,14.17
2018-06-04T16:04:17.143Z,13.47
2018-06-04T16:06:52.850Z,12.53
2018-06-04T16:09:28.512Z,14.10
2018-06-04T16:12:03.283Z,14.57
2018-06-04T16:14:39.018Z,14.30
2018-06-04T16:17:14.196Z,15.13
2018-06-04T16:19:50.100Z,12.63
2018-06-04T16:22:25.842Z,12.53
2018-06-04T16:25:01.819Z,14.30
2018-06-04T16:27:37.278Z,14.13
2018-06-04T16:30:13.670Z,13.30
2018-06-04T16:32:49.096Z,13.10
2018-06-04T16:35:24.542Z,13.93
2018-06-04T16:37:59.821Z,13.53
2018-06-04T16:40:35.335Z,13.90
2018-06-04T16:43:11.138Z,13.80
2018-06-04T16:45:46.679Z,14.17
2018-06-04T16:48:22.442Z,13.43
2018-06-04T16:50:58.126Z,13.23
2018-06-04T16:53:34.926Z,12.97
2018-06-04T16:56:10.457Z,13.17
2018-06-04T16:58:45.430Z,14.10
2018-06-04T17:01:21.223Z,13.17
2018-06-04T17:03:57.102Z,13.30
2018-06-04T17:06:32.846Z,13.07
2018-06-04T17:09:08.151Z,11.83
2018-06-04T17:11:43.689Z,12.17
2018-06-04T17:14:18.973Z,12.00
2018-06-04T17:16:53.887Z,14.83
2018-06-04T17:19:29.214Z,14.73
2018-06-04T17:22:03.682Z,12.50
2018-06-04T17:24:39.852Z,13.87
2018-06-04T17:27:15.895Z,13.70
2018-06-04T17:29:51.790Z,13.90
2018-06-04T17:32:28.126Z,14.13
2018-06-04T17:35:04.339Z,12.03
2018-06-04T17:37:39.765Z,12.97
2018-06-04T17:40:14.187Z,11.70
2018-06-04T17:42:49.593Z,13.20
2018-06-04T17:45:26.214Z,13.20
2018-06-04T17:48:02.779Z,11.60
2018-06-04T17:50:37.834Z,12.70
2018-06-04T17:53:13.841Z,12.27
2018-06-04T17:55:49.369Z,10.87
2018-06-04T17:58:24.330Z,12.43
2018-06-04T18:00:59.719Z,12.40
2018-06-04T18:03:35.100Z,13.67
2018-06-04T18:06:10.515Z,11.70
2018-06-04T18:08:46.882Z,13.53
2018-06-04T18:11:22.404Z,12.30
2018-06-04T18:13:57.130Z,13.10
2018-06-04T18:16:32.774Z,12.60
2018-06-04T18:19:08.414Z,12.03
2018-06-04T18:21:43.140Z,12.80
2018-06-04T18:24:18.886Z,12.70
2018-06-04T18:26:54.296Z,13.53
2018-06-04T18:29:29.233Z,14.00
2018-06-04T18:32:03.877Z,12.03
2018-06-04T18:34:39.551Z,12.67
2018-06-04T18:37:14.979Z,12.33
2018-06-04T18:39:50.716Z,12.87
2018-06-04T18:42:25.774Z,12.63
2018-06-04T18:45:01.706Z,11.67
2018-06-04T18:47:37.885Z,11.77
2018-06-04T18:50:12.902Z,10.40
2018-06-04T18:52:49.170Z,10.97
2018-06-04T18:55:25.007Z,10.60
2018-06-04T18:58:00.437Z,10.60
2018-06-04T19:00:35.451Z,11.17
2018-06-04T19:03:11.210Z,11.33
2018-06-04T19:05:46.732Z,11.37
2018-06-04T19:08:22.041Z,10.60
2018-06-04T19:10:57.201Z,9.47
2018-06-04T19:13:32.049Z,12.27
2018-06-04T19:16:08.890Z,13.00
2018-06-04T19:18:43.828Z,10.90
2018-06-04T19:21:19.978Z,12.70
2018-06-04T19:23:55.923Z,13.03
2018-06-04T19:26:32.571Z,12.40
2018-06-04T19:29:07.913Z,13.03
2018-06-04T19:31:43.046Z,14.20
2018-06-04T19:34:18.422Z,13.50
2018-06-04T19:36:54.065Z,14.60
2018-06-04T19:39:29.272Z,14.87
2018-06-04T19:42:05.462Z,13.80
2018-06-04T19:44:40.397Z,15.73
2018-06-04T19:47:16.059Z,14.07
2018-06-04T19:49:51.354Z,14.73
2018-06-04T19:52:26.374Z,15.10
2018-06-04T19:55:01.787Z,15.90
2018-06-04T19:57:37.884Z,14.90
2018-06-04T20:00:13.886Z,14.67
2018-06-04T20:02:48.986Z,15.13
2018-06-04T20:05:25.078Z,14.97
2018-06-04T20:07:59.511Z,15.13
2018-06-04T20:10:35.974Z,15.17
2018-06-04T20:13:11.750Z,14.27
2018-06-04T20:15:48.102Z,15.30
2018-06-04T20:18:24.618Z,15.17
2018-06-04T20:21:00.255Z,14.93
2018-06-04T20:23:35.607Z,14.57
2018-06-04T20:26:11.101Z,14.37
2018-06-04T20:28:47.252Z,14.13
2018-06-04T20:31:22.707Z,14.23
2018-06-04T20:33:58.662Z,14.57
2018-06-04T20:36:33.642Z,13.97
2018-06-04T20:39:09.794Z,13.70
2018-06-04T20:41:47.002Z,14.30
2018-06-04T20:44:22.383Z,14.27
2018-06-04T20:46:58.202Z,15.27
2018-06-04T20:49:34.269Z,14.30
2018-06-04T20:52:09.340Z,13.83
2018-06-04T20:54:44.360Z,14.13
2018-06-04T20:57:20.375Z,14.03
2018-06-04T20:59:56.758Z,13.47
2018-06-04T21:02:32.715Z,14.27
2018-06-04T21:05:08.958Z,15.47
2018-06-04T21:07:44.658Z,14.43
2018-06-04T21:10:20.228Z,13.53
2018-06-04T21:12:55.186Z,14.17
2018-06-04T21:15:29.917Z,14.90
2018-06-04T21:18:06.760Z,14.70
2018-06-04T21:20:42.606Z,14.67
2018-06-04T21:23:18.651Z,13.90
2018-06-04T21:25:53.426Z,14.73
2018-06-04T21:28:29.208Z,15.03
2018-06-04T21:31:04.940Z,14.67
2018-06-04T21:33:40.786Z,15.13
2018-06-04T21:36:16.301Z,14.00
2018-06-04T21:38:51.182Z,16.27
2018-06-04T21:41:25.849Z,16.50
2018-06-04T21:44:01.166Z,17.27
2018-06-04T21:46:36.590Z,14.97
2018-06-04T21:49:14.979Z,14.53
2018-06-04T21:51:50.862Z,13.30
2018-06-04T21:54:25.950Z,12.87
2018-06-04T21:57:01.945Z,12.77
2018-06-04T21:59:37.271Z,14.40
2018-06-04T22:02:12.230Z,14.00
2018-06-04T22:04:47.837Z,13.70
2018-06-04T22:07:23.566Z,14.07
2018-06-04T22:09:59.566Z,14.07
2018-06-04T22:12:34.202Z,15.70
2018-06-04T22:15:08.949Z,14.83
2018-06-04T22:17:45.194Z,15.27
2018-06-04T22:20:19.896Z,16.93
2018-06-04T22:22:56.028Z,15.90
2018-06-04T22:25:31.657Z,17.30
2018-06-04T22:28:07.542Z,16.60
2018-06-04T22:30:43.746Z,16.13
2018-06-04T22:33:19.591Z,18.07
2018-06-04T22:35:55.228Z,18.27
2018-06-04T22:38:30.730Z,18.67
2018-06-04T22:41:05.302Z,18.67
2018-06-04T22:43:40.859Z,19.47
2018-06-04T22:46:16.222Z,20.10
2018-06-04T22:48:51.786Z,20.37
2018-06-04T22:51:28.356Z,20.60
2018-06-04T22:54:03.792Z,21.03
2018-06-04T22:56:39.103Z,21.17
2018-06-04T22:59:15.846Z,21.50
2018-06-04T23:01:51.895Z,22.87
2018-06-04T23:04:26.665Z,21.33
2018-06-04T23:07:02.091Z,21.40
2018-06-04T23:09:37.782Z,23.93
2018-06-04T23:12:14.136Z,23.17
2018-06-04T23:14:49.846Z,21.90
2018-06-04T23:17:25.791Z,22.77
2018-06-04T23:20:01.382Z,23.23
2018-06-04T23:22:36.594Z,23.37
2018-06-04T23:25:12.274Z,25.60
2018-06-04T23:27:47.792Z,25.37
2018-06-04T23:30:24.246Z,24.57
2018-06-04T23:32:59.130Z,24.40
2018-06-04T23:35:34.667Z,24.70
2018-06-04T23:38:09.887Z,24.87
2018-06-04T23:40:46.174Z,24.67
2018-06-04T23:43:21.171Z,25.53
2018-06-04T23:45:58.014Z,24.57
2018-06-04T23:48:32.962Z,25.77
2018-06-04T23:51:08.722Z,24.93
2018-06-04T23:53:44.834Z,24.97
2018-06-04T23:56:21.182Z,25.43
2018-06-04T23:58:56.514Z,26.23
